createdAt,value
2023-12-30T00:01:54.532Z,100138.00
2023-12-30T00:04:23.881Z,100133.03
2023-12-30T00:06:52.455Z,100147.56
2023-12-30T00:09:20.072Z,100151.63
2023-12-30T00:11:47.658Z,100157.09
2023-12-30T00:14:15.501Z,100153.50
2023-12-30T00:16:43.099Z,100154.88
2023-12-30T00:19:10.776Z,100145.75
2023-12-30T00:21:39.943Z,100157.28
2023-12-30T00:24:07.719Z,100155.66
2023-12-30T00:26:35.231Z,100155.97
2023-12-30T00:29:09.776Z,100153.84
2023-12-30T00:31:37.403Z,100147.44
2023-12-30T00:34:05.066Z,100139.91
2023-12-30T00:36:32.775Z,100136.56
2023-12-30T00:39:01.753Z,100124.84
2023-12-30T00:41:29.418Z,100123.19
2023-12-30T00:43:56.983Z,100085.16
2023-12-30T00:46:25.123Z,100102.22
2023-12-30T00:48:57.307Z,100132.09
2023-12-30T00:51:27.099Z,100158.75
2023-12-30T00:53:54.701Z,100161.38
2023-12-30T00:56:23.707Z,100156.13
2023-12-30T00:58:51.275Z,100162.81
2023-12-30T01:01:18.973Z,100164.13
2023-12-30T01:03:46.789Z,100167.06
2023-12-30T01:06:14.454Z,100164.94
2023-12-30T01:08:42.021Z,100165.16
2023-12-30T01:11:09.582Z,100159.53
2023-12-30T01:13:38.527Z,100168.94
2023-12-30T01:16:07.480Z,100170.22
2023-12-30T01:18:35.155Z,100172.81
2023-12-30T01:21:04.765Z,100185.97
2023-12-30T01:23:33.559Z,100174.94
2023-12-30T01:26:01.238Z,100186.78
2023-12-30T01:28:29.239Z,100185.91
2023-12-30T01:30:58.286Z,100193.06
2023-12-30T01:33:26.180Z,100212.47
2023-12-30T01:35:53.758Z,100195.69
2023-12-30T01:38:21.264Z,100216.41
2023-12-30T01:40:49.171Z,100218.22
2023-12-30T01:43:26.650Z,100218.94
2023-12-30T01:45:55.078Z,100223.72
2023-12-30T01:48:24.614Z,100219.72
2023-12-30T01:50:54.309Z,100220.00
2023-12-30T01:53:23.514Z,100216.78
2023-12-30T01:55:52.740Z,100221.28
2023-12-30T01:58:20.702Z,100216.97
2023-12-30T02:00:49.618Z,100211.00
2023-12-30T02:03:18.706Z,100227.81
2023-12-30T02:05:48.665Z,100228.50
2023-12-30T02:08:20.309Z,100224.22
2023-12-30T02:10:48.278Z,100206.84
2023-12-30T02:13:15.936Z,100224.91
2023-12-30T02:15:43.537Z,100227.03
2023-12-30T02:18:11.269Z,100230.19
2023-12-30T02:20:38.893Z,100231.78
2023-12-30T02:23:07.809Z,100226.53
2023-12-30T02:25:35.474Z,100237.34
2023-12-30T02:28:03.232Z,100225.47
2023-12-30T02:30:31.896Z,100222.47
2023-12-30T02:32:59.864Z,100227.50
2023-12-30T02:35:28.710Z,100235.09
2023-12-30T02:37:56.665Z,100227.13
2023-12-30T02:40:25.619Z,100240.16
2023-12-30T02:42:53.585Z,100243.22
2023-12-30T02:45:21.295Z,100244.19
2023-12-30T02:47:49.461Z,100248.13
2023-12-30T02:50:17.113Z,100257.72
2023-12-30T02:52:44.792Z,100262.16
2023-12-30T02:55:12.532Z,100248.16
2023-12-30T02:57:48.779Z,100251.75
2023-12-30T03:00:18.746Z,100247.94
2023-12-30T03:02:47.226Z,100248.25
2023-12-30T03:05:15.662Z,100252.09
2023-12-30T03:07:43.815Z,100267.88
2023-12-30T03:10:12.900Z,100259.28
2023-12-30T03:12:43.258Z,100260.81
2023-12-30T03:15:11.518Z,100263.00
2023-12-30T03:17:39.162Z,100258.31
2023-12-30T03:20:11.021Z,100260.13
2023-12-30T03:22:39.121Z,100267.34
2023-12-30T03:25:07.828Z,100280.50
2023-12-30T03:27:35.418Z,100260.28
2023-12-30T03:30:05.390Z,100257.50
2023-12-30T03:32:33.046Z,100270.13
2023-12-30T03:35:00.741Z,100269.59
2023-12-30T03:37:28.484Z,100259.22
2023-12-30T03:39:56.233Z,100253.56
2023-12-30T03:42:23.839Z,100257.25
2023-12-30T03:44:51.421Z,100232.19
2023-12-30T03:47:21.853Z,100204.78
2023-12-30T03:49:49.671Z,100195.81
2023-12-30T03:52:17.527Z,100208.81
2023-12-30T03:54:45.138Z,100213.31
2023-12-30T03:57:15.229Z,100233.41
2023-12-30T03:59:42.806Z,100245.63
2023-12-30T04:02:11.138Z,100236.47
2023-12-30T04:04:42.766Z,100247.38
2023-12-30T04:07:10.512Z,100240.34
2023-12-30T04:09:38.082Z,100235.94
2023-12-30T04:12:06.259Z,100242.97
2023-12-30T04:14:34.084Z,100243.84
2023-12-30T04:17:01.660Z,100255.41
2023-12-30T04:19:29.384Z,100255.31
2023-12-30T04:21:58.331Z,100246.22
2023-12-30T04:24:25.970Z,100258.25
2023-12-30T04:26:53.552Z,100253.13
2023-12-30T04:29:21.328Z,100275.00
2023-12-30T04:31:49.104Z,100280.13
2023-12-30T04:34:16.905Z,100269.94
2023-12-30T04:36:44.582Z,100282.34
2023-12-30T04:39:13.432Z,100287.03
2023-12-30T04:41:42.591Z,100290.19
2023-12-30T04:44:10.626Z,100283.44
2023-12-30T04:46:38.504Z,100298.69
2023-12-30T04:49:06.156Z,100298.97
2023-12-30T04:51:37.700Z,100302.41
2023-12-30T04:54:05.503Z,100307.00
2023-12-30T04:56:34.409Z,100304.38
2023-12-30T04:59:02.017Z,100324.19
2023-12-30T05:01:31.606Z,100310.88
2023-12-30T05:03:59.329Z,100321.00
2023-12-30T05:06:26.942Z,100324.78
2023-12-30T05:08:55.090Z,100333.47
2023-12-30T05:11:24.835Z,100338.59
2023-12-30T05:13:53.940Z,100344.00
2023-12-30T05:16:21.651Z,100353.84
2023-12-30T05:18:49.381Z,100352.03
2023-12-30T05:21:17.793Z,100357.28
2023-12-30T05:23:45.919Z,100367.38
2023-12-30T05:26:14.583Z,100370.31
2023-12-30T05:28:42.528Z,100376.41
2023-12-30T05:31:11.578Z,100377.50
2023-12-30T05:33:39.359Z,100384.56
2023-12-30T05:36:08.236Z,100378.88
2023-12-30T05:38:35.831Z,100375.00
2023-12-30T05:41:03.401Z,100376.78
2023-12-30T05:43:31.347Z,100375.53
2023-12-30T05:45:59.064Z,100382.50
2023-12-30T05:48:28.313Z,100380.69
2023-12-30T05:50:55.882Z,100384.00
2023-12-30T05:53:23.437Z,100394.81
2023-12-30T05:55:52.755Z,100393.84
2023-12-30T05:58:20.472Z,100413.22
2023-12-30T06:00:48.137Z,100420.16
2023-12-30T06:03:15.767Z,100416.97
2023-12-30T06:05:44.829Z,100429.00
2023-12-30T06:08:12.582Z,100423.47
2023-12-30T06:10:40.232Z,100430.25
2023-12-30T06:13:07.879Z,100430.94
2023-12-30T06:15:35.442Z,100446.16
2023-12-30T06:18:03.167Z,100440.09
2023-12-30T06:20:30.723Z,100437.75
2023-12-30T06:22:59.910Z,100444.50
2023-12-30T06:25:27.797Z,100457.25
2023-12-30T06:27:55.391Z,100455.47
2023-12-30T06:30:23.052Z,100468.31
2023-12-30T06:32:50.651Z,100465.41
2023-12-30T06:35:18.520Z,100463.16
2023-12-30T06:37:46.143Z,100471.19
2023-12-30T06:40:15.411Z,100473.59
2023-12-30T06:42:46.101Z,100481.31
2023-12-30T06:45:14.163Z,100476.03
2023-12-30T06:47:42.935Z,100482.38
2023-12-30T06:50:13.163Z,100495.38
2023-12-30T06:52:40.728Z,100490.94
2023-12-30T06:55:18.581Z,100492.22
2023-12-30T06:57:52.239Z,100493.19
2023-12-30T07:00:28.006Z,100500.38
2023-12-30T07:03:03.822Z,100502.72
2023-12-30T07:05:44.687Z,100503.53
2023-12-30T07:08:14.246Z,100506.41
2023-12-30T07:10:51.108Z,100512.66
2023-12-30T07:13:24.278Z,100515.69
2023-12-30T07:15:57.338Z,100525.47
2023-12-30T07:18:27.833Z,100539.44
2023-12-30T07:21:00.773Z,100536.00
2023-12-30T07:23:37.445Z,100546.78
2023-12-30T07:26:13.938Z,100541.38
2023-12-30T07:28:48.759Z,100551.19
2023-12-30T07:31:23.983Z,100551.47
2023-12-30T07:33:55.995Z,100552.16
2023-12-30T07:36:29.349Z,100555.34
2023-12-30T07:39:10.658Z,100560.44
2023-12-30T07:41:50.398Z,100560.13
2023-12-30T07:44:57.132Z,100566.63
2023-12-30T07:47:33.226Z,100583.22
2023-12-30T07:50:08.774Z,100580.91
2023-12-30T07:52:41.775Z,100588.50
2023-12-30T07:55:24.828Z,100586.31
2023-12-30T07:57:55.665Z,100597.38
2023-12-30T08:00:34.787Z,100601.94
2023-12-30T08:03:05.420Z,100601.63
2023-12-30T08:05:57.531Z,100612.50
2023-12-30T08:11:33.777Z,100621.16
2023-12-30T08:14:06.647Z,100627.19
2023-12-30T08:16:38.123Z,100625.69
2023-12-30T08:19:05.914Z,100623.88
2023-12-30T08:21:33.964Z,100626.44
2023-12-30T08:24:02.608Z,100626.44
2023-12-30T08:26:30.236Z,100630.63
2023-12-30T08:28:57.846Z,100632.16
2023-12-30T08:31:25.604Z,100632.03
2023-12-30T08:33:54.552Z,100638.69
2023-12-30T08:36:22.631Z,100636.44
2023-12-30T08:38:50.292Z,100642.84
2023-12-30T08:41:20.766Z,100645.50
2023-12-30T08:43:50.293Z,100637.69
2023-12-30T08:46:17.906Z,100642.44
2023-12-30T08:48:45.501Z,100647.13
2023-12-30T08:51:15.077Z,100656.56
2023-12-30T08:53:42.692Z,100655.72
2023-12-30T08:56:10.321Z,100667.31
2023-12-30T08:58:38.108Z,100657.88
2023-12-30T09:01:05.908Z,100663.00
2023-12-30T09:03:33.639Z,100659.88
2023-12-30T09:06:01.364Z,100656.19
2023-12-30T09:08:30.449Z,100661.75
2023-12-30T09:10:59.759Z,100657.38
2023-12-30T09:13:27.420Z,100664.00
2023-12-30T09:15:55.087Z,100668.44
2023-12-30T09:18:22.813Z,100664.44
2023-12-30T09:20:50.430Z,100672.91
2023-12-30T09:23:18.363Z,100676.41
2023-12-30T09:25:47.328Z,100677.94
2023-12-30T09:28:15.143Z,100702.19
2023-12-30T09:30:42.727Z,100686.28
2023-12-30T09:33:12.239Z,100691.38
2023-12-30T09:35:40.799Z,100687.44
2023-12-30T09:38:08.463Z,100697.34
2023-12-30T09:40:36.188Z,100694.84
2023-12-30T09:43:07.141Z,100695.31
2023-12-30T09:45:39.113Z,100705.84
2023-12-30T09:48:08.988Z,100711.66
2023-12-30T09:50:36.926Z,100711.66
2023-12-30T09:53:05.190Z,100715.63
2023-12-30T09:55:33.035Z,100720.28
2023-12-30T09:58:02.263Z,100720.44
2023-12-30T10:00:33.540Z,100716.19
2023-12-30T10:03:02.936Z,100726.69
2023-12-30T10:05:30.820Z,100719.97
2023-12-30T10:07:59.437Z,100730.53
2023-12-30T10:10:42.900Z,100728.38
2023-12-30T10:13:12.991Z,100738.34
2023-12-30T10:15:44.212Z,100729.91
2023-12-30T10:18:14.011Z,100739.28
2023-12-30T10:20:44.588Z,100734.19
2023-12-30T10:23:12.700Z,100753.19
2023-12-30T10:25:40.917Z,100758.75
2023-12-30T10:28:09.113Z,100752.13
2023-12-30T10:30:37.311Z,100757.25
2023-12-30T10:33:11.209Z,100753.66
2023-12-30T10:35:40.900Z,100761.84
2023-12-30T10:38:11.293Z,100745.09
2023-12-30T10:40:41.172Z,100757.56
2023-12-30T10:43:10.616Z,100766.28
2023-12-30T10:45:38.808Z,100757.59
2023-12-30T10:48:09.130Z,100765.47
2023-12-30T10:50:41.942Z,100767.28
2023-12-30T10:53:13.509Z,100766.31
2023-12-30T10:55:49.812Z,100775.88
2023-12-30T10:58:20.740Z,100766.88
2023-12-30T11:00:53.822Z,100777.81
2023-12-30T11:03:23.239Z,100775.03
2023-12-30T11:06:04.519Z,100771.31
2023-12-30T11:08:32.300Z,100773.00
2023-12-30T11:11:01.183Z,100778.66
2023-12-30T11:13:35.929Z,100783.75
2023-12-30T11:16:17.031Z,100781.97
2023-12-30T11:18:50.954Z,100786.81
2023-12-30T11:21:38.771Z,100790.53
2023-12-30T11:24:08.318Z,100786.53
2023-12-30T11:26:37.723Z,100779.19
2023-12-30T11:29:06.133Z,100763.56
2023-12-30T11:31:37.036Z,100753.03
2023-12-30T11:34:05.691Z,100760.66
2023-12-30T11:36:33.463Z,100750.53
2023-12-30T11:39:04.502Z,100770.50
2023-12-30T11:41:33.198Z,100754.28
2023-12-30T11:44:05.427Z,100760.81
2023-12-30T11:46:39.054Z,100757.19
2023-12-30T11:49:07.746Z,100757.78
2023-12-30T11:51:35.587Z,100762.88
2023-12-30T11:54:05.231Z,100745.69
2023-12-30T11:56:33.795Z,100757.34
2023-12-30T11:59:01.880Z,100742.09
2023-12-30T12:01:29.811Z,100749.59
2023-12-30T12:03:57.668Z,100748.09
2023-12-30T12:06:25.585Z,100750.44
2023-12-30T12:08:53.195Z,100745.88
2023-12-30T12:11:22.196Z,100758.63
2023-12-30T12:13:49.986Z,100744.19
2023-12-30T12:16:17.589Z,100749.19
2023-12-30T12:18:46.306Z,100756.41
2023-12-30T12:21:14.997Z,100743.50
2023-12-30T12:23:43.506Z,100750.13
2023-12-30T12:26:11.800Z,100746.13
2023-12-30T12:28:41.467Z,100747.50
2023-12-30T12:31:09.269Z,100741.38
2023-12-30T12:33:38.409Z,100745.03
2023-12-30T12:36:06.859Z,100746.97
2023-12-30T12:38:34.784Z,100748.63
2023-12-30T12:41:02.429Z,100737.81
2023-12-30T12:43:31.295Z,100734.38
2023-12-30T12:46:00.480Z,100743.22
2023-12-30T12:48:28.108Z,100745.59
2023-12-30T12:50:56.748Z,100749.88
2023-12-30T12:53:25.026Z,100751.69
2023-12-30T12:55:52.688Z,100754.16
2023-12-30T12:58:20.481Z,100757.78
2023-12-30T13:00:48.942Z,100751.94
2023-12-30T13:03:18.305Z,100757.47
2023-12-30T13:05:46.413Z,100762.75
2023-12-30T13:08:15.706Z,100762.88
2023-12-30T13:10:48.322Z,100772.75
2023-12-30T13:13:15.979Z,100764.03
2023-12-30T13:15:45.131Z,100761.25
2023-12-30T13:18:14.226Z,100774.69
2023-12-30T13:20:46.553Z,100766.94
2023-12-30T13:23:14.976Z,100766.25
2023-12-30T13:25:42.701Z,100761.50
2023-12-30T13:28:12.785Z,100763.84
2023-12-30T13:30:41.590Z,100774.53
2023-12-30T13:33:11.769Z,100778.97
2023-12-30T13:35:41.752Z,100769.69
2023-12-30T13:38:13.705Z,100779.94
2023-12-30T13:40:42.831Z,100787.44
2023-12-30T13:43:11.733Z,100782.00
2023-12-30T13:45:44.878Z,100795.06
2023-12-30T13:48:46.219Z,100792.69
2023-12-30T13:51:17.128Z,100790.91
2023-12-30T13:53:46.197Z,100792.16
2023-12-30T13:56:20.561Z,100800.31
2023-12-30T13:58:50.025Z,100805.59
2023-12-30T14:01:21.094Z,100798.13
2023-12-30T14:03:49.140Z,100809.34
2023-12-30T14:06:20.839Z,100807.13
2023-12-30T14:08:50.472Z,100805.19
2023-12-30T14:11:32.964Z,100808.09
2023-12-30T14:14:04.171Z,100803.13
2023-12-30T14:16:32.518Z,100805.75
2023-12-30T14:19:00.138Z,100811.84
2023-12-30T14:21:27.759Z,100817.13
2023-12-30T14:23:56.618Z,100818.78
2023-12-30T14:26:24.489Z,100821.28
2023-12-30T14:28:52.220Z,100816.97
2023-12-30T14:31:20.026Z,100817.13
2023-12-30T14:33:47.753Z,100817.13
2023-12-30T14:36:17.105Z,100820.16
2023-12-30T14:38:44.740Z,100822.88
2023-12-30T14:41:13.673Z,100820.81
2023-12-30T14:43:41.526Z,100830.09
2023-12-30T14:46:11.793Z,100822.19
2023-12-30T14:48:39.496Z,100823.84
2023-12-30T14:51:08.375Z,100828.44
2023-12-30T14:53:37.401Z,100828.84
2023-12-30T14:56:05.638Z,100828.84
2023-12-30T14:58:34.807Z,100826.34
2023-12-30T15:01:02.489Z,100836.69
2023-12-30T15:03:30.251Z,100835.16
2023-12-30T15:05:57.925Z,100833.78
2023-12-30T15:08:25.602Z,100839.97
2023-12-30T15:10:53.817Z,100853.50
2023-12-30T15:13:21.498Z,100851.88
2023-12-30T15:15:50.430Z,100855.50
2023-12-30T15:18:18.034Z,100848.97
2023-12-30T15:20:45.745Z,100854.19
2023-12-30T15:23:15.953Z,100858.72
2023-12-30T15:25:43.631Z,100868.69
2023-12-30T15:28:11.623Z,100874.81
2023-12-30T15:30:40.069Z,100874.22
2023-12-30T15:33:09.491Z,100877.38
2023-12-30T15:35:38.791Z,100881.09
2023-12-30T15:38:06.480Z,100874.88
2023-12-30T15:40:35.690Z,100879.28
2023-12-30T15:43:06.345Z,100877.63
2023-12-30T15:45:37.227Z,100882.47
2023-12-30T15:48:08.057Z,100893.50
2023-12-30T15:50:37.271Z,100886.69
2023-12-30T15:53:07.039Z,100881.50
2023-12-30T15:55:35.979Z,100879.59
2023-12-30T15:58:04.114Z,100888.09
2023-12-30T16:00:33.495Z,100896.13
2023-12-30T16:03:02.716Z,100895.19
2023-12-30T16:05:30.749Z,100897.00
2023-12-30T16:08:00.040Z,100904.56
2023-12-30T16:10:28.865Z,100898.00
2023-12-30T16:12:56.563Z,100901.00
2023-12-30T16:15:24.837Z,100903.50
2023-12-30T16:17:52.618Z,100899.34
2023-12-30T16:20:20.315Z,100901.25
2023-12-30T16:22:48.029Z,100901.13
2023-12-30T16:25:17.474Z,100898.63
2023-12-30T16:27:46.359Z,100899.59
2023-12-30T16:30:15.097Z,100894.56
2023-12-30T16:32:42.977Z,100901.31
2023-12-30T16:35:11.043Z,100898.44
2023-12-30T16:37:38.836Z,100898.91
2023-12-30T16:40:09.512Z,100899.00
2023-12-30T16:42:38.964Z,100904.28
2023-12-30T16:45:07.566Z,100910.66
2023-12-30T16:47:37.879Z,100918.19
2023-12-30T16:50:06.925Z,100910.81
2023-12-30T16:52:35.070Z,100918.47
2023-12-30T16:55:04.261Z,100916.06
2023-12-30T16:57:32.110Z,100917.38
2023-12-30T17:00:02.442Z,100918.22
2023-12-30T17:02:30.068Z,100900.31
2023-12-30T17:04:57.986Z,100914.06
2023-12-30T17:07:27.017Z,100917.84
2023-12-30T17:09:55.669Z,100923.38
2023-12-30T17:12:23.250Z,100928.00
2023-12-30T17:14:51.917Z,100926.25
2023-12-30T17:17:20.875Z,100935.06
2023-12-30T17:19:48.440Z,100929.69
2023-12-30T17:22:16.130Z,100936.97
2023-12-30T17:24:43.710Z,100938.19
2023-12-30T17:27:11.319Z,100935.44
2023-12-30T17:29:38.973Z,100948.56
2023-12-30T17:32:09.192Z,100947.59
2023-12-30T17:34:38.539Z,100935.09
2023-12-30T17:37:06.522Z,100945.94
2023-12-30T17:39:34.165Z,100942.34
2023-12-30T17:42:02.431Z,100949.91
2023-12-30T17:44:30.486Z,100945.94
2023-12-30T17:46:58.881Z,100940.94
2023-12-30T17:49:27.167Z,100936.38
2023-12-30T17:51:56.075Z,100940.81
2023-12-30T17:54:24.297Z,100941.13
2023-12-30T17:56:52.114Z,100932.41
2023-12-30T17:59:19.820Z,100938.66
2023-12-30T18:01:47.412Z,100931.59
2023-12-30T18:04:15.166Z,100934.72
2023-12-30T18:06:42.696Z,100930.53
2023-12-30T18:09:14.060Z,100932.22
2023-12-30T18:11:41.629Z,100931.56
2023-12-30T18:14:12.483Z,100939.31
2023-12-30T18:16:40.429Z,100936.94
2023-12-30T18:19:08.146Z,100932.66
2023-12-30T18:21:35.835Z,100932.66
2023-12-30T18:24:03.538Z,100940.63
2023-12-30T18:26:32.544Z,100941.69
2023-12-30T18:29:04.935Z,100944.53
2023-12-30T18:31:32.666Z,100937.06
2023-12-30T18:34:00.362Z,100942.28
2023-12-30T18:36:28.358Z,100937.41
2023-12-30T18:38:56.025Z,100948.59
2023-12-30T18:41:23.576Z,100952.19
2023-12-30T18:43:52.631Z,100950.38
2023-12-30T18:46:20.312Z,100948.34
2023-12-30T18:48:48.755Z,100945.47
2023-12-30T18:51:17.032Z,100946.66
2023-12-30T18:53:44.591Z,100949.38
2023-12-30T18:56:12.359Z,100950.94
2023-12-30T18:58:40.793Z,100951.53
2023-12-30T19:01:10.447Z,100943.53
2023-12-30T19:03:38.081Z,100950.00
2023-12-30T19:06:05.824Z,100945.19
2023-12-30T19:08:34.938Z,100948.91
2023-12-30T19:11:02.457Z,100946.75
2023-12-30T19:13:30.051Z,100937.44
2023-12-30T19:15:57.682Z,100943.66
2023-12-30T19:18:26.553Z,100944.47
2023-12-30T19:20:55.589Z,100943.66
2023-12-30T19:23:23.247Z,100944.25
2023-12-30T19:25:51.128Z,100947.47
2023-12-30T19:28:18.816Z,100954.03
2023-12-30T19:30:46.464Z,100947.72
2023-12-30T19:33:15.206Z,100952.72
2023-12-30T19:35:44.954Z,100955.94
2023-12-30T19:38:13.065Z,100959.88
2023-12-30T19:40:45.942Z,100953.22
2023-12-30T19:43:14.486Z,100959.16
2023-12-30T19:45:42.141Z,100960.41
2023-12-30T19:48:09.792Z,100968.97
2023-12-30T19:50:38.074Z,100965.16
2023-12-30T19:53:06.963Z,100960.28
2023-12-30T19:55:34.587Z,100966.59
2023-12-30T19:58:02.281Z,100963.16
2023-12-30T20:00:29.848Z,100956.13
2023-12-30T20:02:57.400Z,100960.44
2023-12-30T20:05:25.126Z,100953.50
2023-12-30T20:07:52.699Z,100954.44
2023-12-30T20:10:21.647Z,100952.56
2023-12-30T20:12:49.387Z,100950.38
2023-12-30T20:15:17.947Z,100954.81
2023-12-30T20:17:46.399Z,100961.72
2023-12-30T20:20:14.206Z,100954.66
2023-12-30T20:22:42.346Z,100952.53
2023-12-30T20:25:10.158Z,100963.69
2023-12-30T20:27:41.466Z,100961.91
2023-12-30T20:30:10.307Z,100968.22
2023-12-30T20:32:41.768Z,100965.56
2023-12-30T20:35:09.732Z,100969.00
2023-12-30T20:37:37.557Z,100954.16
2023-12-30T20:40:07.178Z,100958.31
2023-12-30T20:42:36.338Z,100961.03
2023-12-30T20:45:06.372Z,100955.09
2023-12-30T20:47:34.697Z,100958.16
2023-12-30T20:50:03.905Z,100942.31
2023-12-30T20:52:32.275Z,100942.44
2023-12-30T20:55:14.405Z,100944.00
2023-12-30T20:57:45.187Z,100947.22
2023-12-30T21:00:15.490Z,100943.03
2023-12-30T21:02:44.311Z,100943.50
2023-12-30T21:05:11.824Z,100949.78
2023-12-30T21:07:42.701Z,100940.50
2023-12-30T21:10:11.624Z,100944.78
2023-12-30T21:12:39.335Z,100947.03
2023-12-30T21:15:07.824Z,100943.13
2023-12-30T21:17:39.939Z,100947.19
2023-12-30T21:20:11.001Z,100944.06
2023-12-30T21:22:40.410Z,100940.63
2023-12-30T21:25:16.164Z,100934.41
2023-12-30T21:27:50.986Z,100936.59
2023-12-30T21:30:19.030Z,100939.56
2023-12-30T21:32:50.624Z,100940.19
2023-12-30T21:35:19.512Z,100947.22
2023-12-30T21:37:48.469Z,100938.41
2023-12-30T21:40:18.760Z,100937.72
2023-12-30T21:42:46.863Z,100928.69
2023-12-30T21:45:14.509Z,100928.69
2023-12-30T21:47:42.705Z,100932.94
2023-12-30T21:50:12.079Z,100935.22
2023-12-30T21:52:39.841Z,100941.56
2023-12-30T21:55:09.192Z,100933.09
2023-12-30T21:57:36.826Z,100936.44
2023-12-30T22:00:05.700Z,100932.03
2023-12-30T22:02:35.226Z,100934.53
2023-12-30T22:05:03.093Z,100936.56
2023-12-30T22:07:32.914Z,100924.88
2023-12-30T22:10:01.128Z,100923.09
2023-12-30T22:12:32.196Z,100921.09
2023-12-30T22:15:00.552Z,100919.53
2023-12-30T22:17:28.506Z,100918.94
2023-12-30T22:19:57.630Z,100917.84
2023-12-30T22:22:25.225Z,100925.81
2023-12-30T22:24:54.179Z,100915.84
2023-12-30T22:27:21.715Z,100919.50
2023-12-30T22:29:49.606Z,100925.81
2023-12-30T22:32:18.342Z,100922.00
2023-12-30T22:34:45.947Z,100918.22
2023-12-30T22:37:13.507Z,100924.53
2023-12-30T22:39:41.072Z,100916.31
2023-12-30T22:42:10.069Z,100922.66
2023-12-30T22:44:38.911Z,100920.88
2023-12-30T22:47:06.881Z,100918.25
2023-12-30T22:49:34.485Z,100918.25
2023-12-30T22:52:02.184Z,100917.84
2023-12-30T22:54:29.737Z,100914.16
2023-12-30T22:56:59.214Z,100906.06
2023-12-30T22:59:28.032Z,100905.13
2023-12-30T23:01:58.478Z,100908.59
2023-12-30T23:04:26.051Z,100907.47
2023-12-30T23:06:53.661Z,100908.44
2023-12-30T23:09:21.652Z,100915.22
2023-12-30T23:11:49.203Z,100904.25
2023-12-30T23:14:16.880Z,100908.78
2023-12-30T23:16:46.682Z,100901.53
2023-12-30T23:19:14.267Z,100901.75
2023-12-30T23:21:41.809Z,100894.59
2023-12-30T23:24:09.406Z,100896.28
2023-12-30T23:26:37.630Z,100892.72
2023-12-30T23:29:05.161Z,100883.28
2023-12-30T23:31:32.720Z,100884.34
2023-12-30T23:34:01.649Z,100884.13
2023-12-30T23:36:29.201Z,100891.28
2023-12-30T23:38:56.781Z,100883.63
2023-12-30T23:41:24.345Z,100882.81
2023-12-30T23:43:53.209Z,100877.13
2023-12-30T23:46:20.754Z,100874.81
2023-12-30T23:48:48.362Z,100876.47
2023-12-30T23:51:17.248Z,100873.84
2023-12-30T23:53:44.822Z,100869.81
2023-12-30T23:56:12.374Z,100871.88
2023-12-30T23:58:40.000Z,100874.50
